Flight Track Log - Related Links

Times and Time Zones

All times are in EDT time to prevent confusion due to time zone crossing. See the N4612D flight status page for this flight to view local times or setup timezone preferences in your user account.

Time Position Orientation Groundspeed Altitude Reporting Facility
EDT Latitude Longitude Course Direction KTS MPH feet Rate Location/Type
Fri 07:59:10 PM 45.3189 -123.0197 341° North 72 83 1,200  Level Seattle Center
Fri 07:59:40 PM 45.3172 -123.0111 105° East 68 78 1,500 659 Climbing Seattle Center
Fri 08:00:41 PM 45.3169 -122.9869 91° East 65 75 2,200 656 Climbing Seattle Center
Fri 08:01:48 PM 45.3425 -122.9858 North 99 114 2,900 595 Climbing Seattle Center
Fri 08:02:00 PM 45.4626 -122.9833 North  Level FlightAware Approximate
Fri 08:02:42 PM 45.3611 -122.9814 10° North 75 86 3,400  Level Seattle Center
Fri 08:03:00 PM 45.4884 -122.9833 360° North  Level FlightAware Approximate
Fri 08:03:12 PM 45.3678 -122.9764 28° Northeast 67 77 3,600  Level Seattle Center
Fri 08:03:49 PM 45.3811 -122.9733 North 73 84 4,100 673 Climbing Seattle Center
Fri 08:04:00 PM 45.5135 -122.9901 341° North  Level FlightAware Approximate
Fri 08:04:50 PM 45.3933 -122.9900 316° Northwest 61 70 4,700  Level Seattle Center
Fri 08:05:51 PM 45.4058 -123.0097 312° West 67 77 5,100 443 Climbing Seattle Center
Fri 08:06:52 PM 45.4197 -123.0256 321° Northwest 63 72 5,600 496 Climbing Seattle Center
Fri 08:07:52 PM 45.4317 -123.0422 316° Northwest 61 70 6,100 248 Climbing Seattle Center
Fri 08:08:53 PM 45.4506 -123.0717 312° West 94 108 6,100 -49 Level Seattle Center
Fri 08:09:54 PM 45.4686 -123.0983 314° West 92 106 6,000  Descending Seattle Center
Fri 08:11:20 PM 45.4956 -123.1278 323° Northwest 91 105 6,100  Climbing Seattle Center
Fri 08:12:21 PM 45.5144 -123.1514 319° Northwest 90 104 6,000 -49 Descending Seattle Center
Fri 08:13:22 PM 45.5333 -123.1731 321° Northwest 89 102 6,000  Level Seattle Center
Fri 08:14:23 PM 45.5544 -123.1958 323° Northwest 93 107 6,000  Level Seattle Center
Fri 08:15:24 PM 45.5758 -123.2167 326° Northwest 93 107 6,000 49 Level Seattle Center
Fri 08:16:25 PM 45.5975 -123.2397 323° Northwest 96 110 6,100  Climbing Seattle Center
Fri 08:17:26 PM 45.6186 -123.2667 318° Northwest 99 114 6,000  Descending Seattle Center
Fri 08:18:27 PM 45.6372 -123.2914 317° Northwest 96 110 6,100 49 Climbing Seattle Center
Fri 08:19:28 PM 45.6561 -123.3133 321° Northwest 90 104 6,100  Level Seattle Center
Fri 08:20:29 PM 45.6822 -123.3431 322° Northwest 97 112 6,100  Level Seattle Center
Fri 08:21:30 PM 45.7028 -123.3686 319° Northwest 98 113 6,100 -49 Level Seattle Center
Fri 08:22:31 PM 45.7228 -123.3933 319° Northwest 96 110 6,000  Descending Seattle Center
Fri 08:23:32 PM 45.7431 -123.4169 321° Northwest 95 109 6,100  Climbing Seattle Center
Fri 08:24:33 PM 45.7633 -123.4419 319° Northwest 96 110 6,000 -49 Descending Seattle Center
Fri 08:25:34 PM 45.7842 -123.4681 319° Northwest 97 112 6,000  Level Seattle Center
Fri 08:26:35 PM 45.8028 -123.4944 315° West 96 110 6,000  Level Seattle Center
Fri 08:27:36 PM 45.8219 -123.5200 317° Northwest 95 109 6,000  Level Seattle Center
Fri 08:28:37 PM 45.8408 -123.5461 316° Northwest 95 109 6,000 49 Level Seattle Center
Fri 08:29:38 PM 45.8600 -123.5692 320° Northwest 93 107 6,100 49 Climbing Seattle Center
Fri 08:30:39 PM 45.8806 -123.5922 322° Northwest 93 107 6,100 -49 Level Seattle Center
Fri 08:31:40 PM 45.9014 -123.6156 322° Northwest 94 108 6,000 -49 Descending Seattle Center
Fri 08:32:41 PM 45.9244 -123.5800 47° Northeast 110 127 6,000 49 Level Seattle Center
Fri 08:33:42 PM 45.9428 -123.5492 49° Northeast 109 125 6,100 50 Climbing Seattle Center
Fri 08:34:42 PM 45.9636 -123.5236 40° Northeast 105 121 6,100  Level Seattle Center
Fri 08:35:43 PM 45.9869 -123.5014 33° Northeast 103 119 6,100 -49 Level Seattle Center
Fri 08:36:44 PM 46.0119 -123.4847 25° Northeast 102 117 6,000 -295 Descending Seattle Center
Fri 08:37:45 PM 46.0383 -123.4678 24° Northeast 102 117 5,500 -492 Descending Seattle Center
Fri 08:38:46 PM 46.0664 -123.4483 26° Northeast 106 122 5,000 -492 Descending Seattle Center
Fri 08:39:47 PM 46.0953 -123.4306 23° Northeast 110 127 4,500 -295 Descending Seattle Center
Fri 08:40:48 PM 46.1236 -123.4203 14° North 109 125 4,400 -148 Descending Seattle Center
Fri 08:41:49 PM 46.1364 -123.4567 297° West 121 139 4,200 -197 Descending Seattle Center
Fri 08:42:50 PM 46.1317 -123.5008 261° West 117 135 4,000 -98 Descending Seattle Center
Fri 08:43:51 PM 46.1286 -123.5514 265° West 114 131 4,000  Level Seattle Center
Fri 08:44:52 PM 46.1378 -123.5856 291° West 108 124 4,000 49 Level Seattle Center
Fri 08:45:53 PM 46.1433 -123.6344 279° West 106 122 4,100 49 Climbing Seattle Center
Fri 08:46:54 PM 46.1439 -123.6764 271° West 105 121 4,100  Level Seattle Center
Fri 08:47:55 PM 46.1458 -123.7119 275° West 98 113 4,100  Level Seattle Center
Fri 08:48:55 PM 46.1500 -123.7486 279° West 95 109 4,100 50 Level Seattle Center
Fri 08:49:56 PM 46.1528 -123.7881 276° West 97 112 4,200 393 Climbing Seattle Center
Fri 08:50:57 PM 46.1544 -123.8225 274° West 94 108 4,900 590 Climbing Seattle Center
Fri 08:51:58 PM 46.1433 -123.8431 232° Southwest 97 112 5,400 492 Climbing Seattle Center
Fri 08:52:59 PM 46.1247 -123.8200 139° Southeast 92 106 5,900 344 Climbing Seattle Center
Fri 08:54:00 PM 46.1008 -123.7939 143° Southeast 101 116 6,100 98 Climbing Seattle Center
Fri 08:55:01 PM 46.0736 -123.7653 144° Southeast 112 129 6,100  Level Seattle Center
Fri 08:56:02 PM 46.0456 -123.7361 144° Southeast 119 137 6,100  Level Seattle Center
Fri 08:57:03 PM 46.0189 -123.7067 143° Southeast 120 138 6,100 -49 Level Seattle Center
Fri 08:58:04 PM 45.9911 -123.6792 145° Southeast 121 139 6,000  Descending Seattle Center
Fri 08:59:05 PM 45.9589 -123.6450 144° Southeast 120 138 6,100 49 Climbing Seattle Center
Fri 09:00:06 PM 45.9319 -123.6169 144° Southeast 120 138 6,100  Level Seattle Center
Fri 09:01:06 PM 45.9056 -123.5892 144° Southeast 119 137 6,100  Level Seattle Center
Fri 09:02:07 PM 45.8783 -123.5608 144° Southeast 119 137 6,100 -63 Level Seattle Center
Fri 09:02:42 PM 45.8597 -123.5417 144° Southeast 126 145 6,000 -154 Descending Seattle Center
Fri 09:03:25 PM 45.8406 -123.5211 143° Southeast 126 145 5,900 69 Descending Seattle Center
Fri 09:04:09 PM 45.8236 -123.5011 141° Southeast 122 140 6,100 57 Climbing Seattle Center
Fri 09:05:10 PM 45.7975 -123.4742 144° Southeast 120 138 6,000 -246 Descending Seattle Center
Fri 09:06:11 PM 45.7689 -123.4442 144° Southeast 122 140 5,600 -197 Descending Seattle Center
Fri 09:07:12 PM 45.7419 -123.4150 143° Southeast 123 142 5,600  Level Seattle Center
Fri 09:08:13 PM 45.7158 -123.3869 143° Southeast 121 139 5,600  Level Seattle Center
Fri 09:09:14 PM 45.6897 -123.3594 144° Southeast 119 137 5,600  Level Seattle Center
Fri 09:10:15 PM 45.6633 -123.3306 143° Southeast 119 137 5,600  Level Seattle Center
Fri 09:11:16 PM 45.6389 -123.3003 139° Southeast 117 135 5,600  Level Seattle Center
Fri 09:12:16 PM 45.6153 -123.2700 138° Southeast 116 133 5,600  Level Seattle Center
Fri 09:13:17 PM 45.5867 -123.2369 141° Southeast 113 130 5,600  Level Seattle Center
Fri 09:14:18 PM 45.5617 -123.2108 144° Southeast 111 128 5,600  Level Seattle Center
Fri 09:14:52 PM 45.5450 -123.2003 156° South 110 127 5,600  Level Seattle Center
Fri 09:16:20 PM 45.5047 -123.1728 154° Southeast 114 131 5,600  Level Seattle Center
Fri 09:18:00 PM 45.4305 -123.1707 179° South  Level FlightAware Approximate
Fri 09:25:00 PM 45.1945 -123.1361 172° South  Level Estimated
Fri 09:26:00 PM 45.1945 -123.1361 172° South  Level Estimated
Fri 09:27:00 PM 45.1945 -123.1361 172° South  Level Estimated
Fri 09:28:00 PM 45.1945 -123.1361 172° South  Level Estimated
Fri 09:29:00 PM 45.1945 -123.1361 172° South  Level Estimated
Fri 09:30:00 PM 45.1945 -123.1361 172° South  Level Estimated
Fri 09:31:00 PM 45.1945 -123.1361 172° South  Level Estimated
Fri 09:32:00 PM 45.1945 -123.1361 172° South  Level Estimated
Fri 09:33:00 PM 45.1945 -123.1361 172° South  Level Estimated
Fri 09:34:00 PM 45.1945 -123.1361 172° South  Level Estimated
Fri 09:35:00 PM 45.1945 -123.1361 172° South  Level Estimated
Fri 09:36:00 PM 45.1945 -123.1361 172° South  Level Estimated
Fri 09:37:00 PM 45.1945 -123.1361 172° South  Level Estimated
Fri 09:38:00 PM 45.1945 -123.1361 172° South  Level Estimated
Fri 09:39:00 PM 45.1945 -123.1361 172° South  Level Estimated
Fri 09:40:00 PM 45.1945 -123.1361 172° South  Level Estimated
Fri 09:41:00 PM 45.1945 -123.1361 172° South  Level Estimated
Fri 09:42:00 PM 45.1945 -123.1361 172° South  Level Estimated
Fri 09:43:00 PM 45.1945 -123.1361 172° South  Level Estimated
Fri 09:44:00 PM 45.1945 -123.1361 172° South  Level Estimated

Login

Don't have an account? Register now (free) for customized features, flight alerts, and more!